Time;durP1;ratioP1;P1;durP2;ratioP2;P2;SDS_P1;SDS_P2;PMS_P1;PMS_P2;Temp;Humidity;BMP_temperature;BMP_pressure;BME280_temperature;BME280_humidity;BME280_pressure;Samples;Min_cycle;Max_cycle;Signal;HPM_P1;HPM_P2
2023/07/17 00:00:28;;;;;;;;;;;26.00;53.00;;;;;;1553193;75;562;-52
2023/07/17 00:02:30;;;;;;;;;;;26.00;53.00;;;;;;1545234;75;872;-52
2023/07/17 00:04:34;;;;;;;;;;;26.10;52.80;;;;;;1547093;75;705;-52
2023/07/17 00:06:36;;;;;;;;;;;26.00;52.80;;;;;;1555058;75;765;-52
2023/07/17 00:08:37;;;;;;;;;;;26.10;52.70;;;;;;1543335;75;1139;-48
2023/07/17 00:10:40;;;;;;;;;;;26.00;52.60;;;;;;1545013;75;1565;-52
2023/07/17 00:12:42;;;;;;;;;;;26.10;52.70;;;;;;1543371;75;763;-51
2023/07/17 00:14:44;;;;;;;;;;;26.10;52.90;;;;;;1548223;75;1937;-52
2023/07/17 00:16:46;;;;;;;;;;;26.10;53.10;;;;;;1547337;75;754;-51
2023/07/17 00:18:48;;;;;;;;;;;26.10;53.20;;;;;;1554403;75;1147;-52
2023/07/17 00:20:50;;;;;;;;;;;26.00;53.20;;;;;;1560179;75;852;-51
2023/07/17 00:22:52;;;;;;;;;;;26.00;53.40;;;;;;1556034;75;725;-51
2023/07/17 00:24:54;;;;;;;;;;;26.00;53.50;;;;;;1552675;75;1510;-51
2023/07/17 00:26:56;;;;;;;;;;;26.00;53.50;;;;;;1569436;74;853;-48
2023/07/17 00:29:00;;;;;;;;;;;26.00;53.60;;;;;;1558125;75;1214;-47
2023/07/17 00:31:02;;;;;;;;;;;26.00;53.70;;;;;;1551849;75;872;-51
2023/07/17 00:33:04;;;;;;;;;;;26.00;53.80;;;;;;1534998;75;759;-52
2023/07/17 00:35:06;;;;;;;;;;;26.00;53.80;;;;;;1545283;75;1928;-51
2023/07/17 00:37:08;;;;;;;;;;;26.00;53.80;;;;;;1558734;74;818;-52
2023/07/17 00:39:10;;;;;;;;;;;26.00;53.80;;;;;;1556615;75;1537;-51
2023/07/17 00:41:12;;;;;;;;;;;26.00;53.90;;;;;;1567386;75;732;-52
2023/07/17 00:43:13;;;;;;;;;;;26.00;54.00;;;;;;1558017;75;729;-52
2023/07/17 00:45:15;;;;;;;;;;;25.90;53.60;;;;;;1564803;75;737;-49
2023/07/17 00:47:17;;;;;;;;;;;26.00;54.20;;;;;;1562580;75;712;-50
2023/07/17 00:49:20;;;;;;;;;;;26.00;54.20;;;;;;1558497;75;1100;-48
2023/07/17 00:51:21;;;;;;;;;;;26.00;54.20;;;;;;1566872;75;761;-50
2023/07/17 00:53:23;;;;;;;;;;;26.00;53.90;;;;;;1564983;74;1553;-52
2023/07/17 00:55:25;;;;;;;;;;;25.90;53.20;;;;;;1549510;74;1924;-49
2023/07/17 00:57:27;;;;;;;;;;;26.00;53.60;;;;;;1560457;74;700;-52
2023/07/17 00:59:29;;;;;;;;;;;26.00;53.60;;;;;;1551834;73;1130;-52
2023/07/17 01:01:31;;;;;;;;;;;26.00;53.70;;;;;;1557451;75;779;-50
2023/07/17 01:03:33;;;;;;;;;;;26.00;53.70;;;;;;1561657;75;820;-53
2023/07/17 01:05:36;;;;;;;;;;;25.90;53.10;;;;;;1555376;75;766;-52
2023/07/17 01:07:39;;;;;;;;;;;26.00;53.40;;;;;;1576949;75;1336;-52
2023/07/17 01:09:41;;;;;;;;;;;26.00;53.30;;;;;;1561868;74;1138;-52
2023/07/17 01:11:43;;;;;;;;;;;26.00;52.90;;;;;;1553132;75;675;-50
2023/07/17 01:13:45;;;;;;;;;;;26.00;53.00;;;;;;1565240;75;828;-49
2023/07/17 01:15:47;;;;;;;;;;;26.00;52.70;;;;;;1552430;75;1918;-49
2023/07/17 01:17:50;;;;;;;;;;;26.00;52.60;;;;;;1573618;75;819;-52
2023/07/17 01:19:51;;;;;;;;;;;26.00;52.80;;;;;;1555518;75;1199;-50
2023/07/17 01:21:54;;;;;;;;;;;26.00;52.60;;;;;;1562543;75;1387;-52
2023/07/17 01:23:56;;;;;;;;;;;26.00;52.70;;;;;;1553206;75;790;-51
2023/07/17 01:25:58;;;;;;;;;;;26.00;52.70;;;;;;1552481;75;1112;-48
2023/07/17 01:28:00;;;;;;;;;;;26.00;52.40;;;;;;1566570;74;758;-51
2023/07/17 01:30:02;;;;;;;;;;;26.00;52.40;;;;;;1560763;75;1172;-49
2023/07/17 01:32:04;;;;;;;;;;;26.00;52.50;;;;;;1580858;74;791;-52
2023/07/17 01:34:06;;;;;;;;;;;26.00;52.60;;;;;;1570711;74;1897;-52
2023/07/17 01:36:09;;;;;;;;;;;26.00;52.60;;;;;;1573792;74;1515;-51
2023/07/17 01:38:11;;;;;;;;;;;26.00;52.40;;;;;;1564271;74;737;-52
2023/07/17 01:40:15;;;;;;;;;;;26.10;52.20;;;;;;1567259;74;1102;-52
2023/07/17 01:42:17;;;;;;;;;;;26.00;52.20;;;;;;1576857;75;712;-50
2023/07/17 01:44:19;;;;;;;;;;;26.10;52.30;;;;;;1561284;74;723;-51
2023/07/17 01:46:21;;;;;;;;;;;26.10;52.30;;;;;;1561516;74;758;-48
2023/07/17 01:48:23;;;;;;;;;;;26.10;52.30;;;;;;1564688;75;729;-50
2023/07/17 01:50:25;;;;;;;;;;;26.00;52.30;;;;;;1558585;75;1481;-52
2023/07/17 01:52:26;;;;;;;;;;;26.00;52.30;;;;;;1570943;75;748;-51
2023/07/17 01:54:28;;;;;;;;;;;26.00;52.30;;;;;;1565664;75;1924;-49
2023/07/17 01:56:30;;;;;;;;;;;26.10;52.30;;;;;;1566155;75;745;-52
2023/07/17 01:58:32;;;;;;;;;;;26.00;52.30;;;;;;1575389;74;1150;-52
2023/07/17 02:00:35;;;;;;;;;;;26.00;52.30;;;;;;1567366;75;710;-48
2023/07/17 02:02:37;;;;;;;;;;;26.00;52.30;;;;;;1560094;75;1282;-52
2023/07/17 02:04:39;;;;;;;;;;;26.10;52.30;;;;;;1558652;75;690;-50
2023/07/17 02:06:40;;;;;;;;;;;26.00;52.30;;;;;;1564624;75;706;-52
2023/07/17 02:08:42;;;;;;;;;;;26.00;52.30;;;;;;1565281;74;1135;-50
2023/07/17 02:10:44;;;;;;;;;;;26.00;52.50;;;;;;1562960;75;731;-52
2023/07/17 02:12:46;;;;;;;;;;;26.00;52.60;;;;;;1563656;74;734;-50
2023/07/17 02:14:48;;;;;;;;;;;26.00;52.90;;;;;;1566036;74;2092;-50
2023/07/17 02:16:50;;;;;;;;;;;26.00;52.90;;;;;;1570350;74;1518;-50
2023/07/17 02:18:52;;;;;;;;;;;26.00;52.70;;;;;;1566761;75;1155;-52
2023/07/17 02:20:54;;;;;;;;;;;26.00;52.60;;;;;;1565484;74;747;-51
2023/07/17 02:22:56;;;;;;;;;;;26.00;52.50;;;;;;1564647;75;895;-48
2023/07/17 02:24:57;;;;;;;;;;;26.00;52.50;;;;;;1553463;74;1135;-51
2023/07/17 02:27:01;;;;;;;;;;;26.00;52.70;;;;;;1538827;76;746;-50
2023/07/17 02:29:03;;;;;;;;;;;26.00;52.60;;;;;;1526051;76;1171;-50
2023/07/17 02:31:05;;;;;;;;;;;26.00;52.50;;;;;;1552079;76;1535;-50
2023/07/17 02:33:07;;;;;;;;;;;26.00;52.60;;;;;;1537845;76;772;-51
2023/07/17 02:35:09;;;;;;;;;;;26.00;52.70;;;;;;1542798;76;2052;-51
2023/07/17 02:37:11;;;;;;;;;;;26.00;52.60;;;;;;1542762;76;689;-52
2023/07/17 02:39:13;;;;;;;;;;;26.00;52.70;;;;;;1530421;76;1181;-50
2023/07/17 02:41:15;;;;;;;;;;;26.00;52.70;;;;;;1535050;76;715;-52
2023/07/17 02:43:17;;;;;;;;;;;26.00;52.70;;;;;;1540597;76;1193;-52
2023/07/17 02:45:18;;;;;;;;;;;26.00;52.70;;;;;;1547255;76;1377;-51
2023/07/17 02:47:20;;;;;;;;;;;26.00;52.80;;;;;;1533858;76;771;-50
2023/07/17 02:49:22;;;;;;;;;;;26.00;52.90;;;;;;1540035;76;1138;-52
2023/07/17 02:51:24;;;;;;;;;;;26.00;53.10;;;;;;1540436;76;761;-52
2023/07/17 02:53:26;;;;;;;;;;;26.00;53.10;;;;;;1531992;76;758;-49
2023/07/17 02:55:28;;;;;;;;;;;26.00;53.10;;;;;;1531198;76;1943;-50
2023/07/17 02:57:30;;;;;;;;;;;26.00;53.10;;;;;;1533711;76;686;-50
2023/07/17 02:59:32;;;;;;;;;;;26.00;53.30;;;;;;1531598;76;1546;-50
2023/07/17 03:01:34;;;;;;;;;;;26.00;53.30;;;;;;1544243;76;889;-49
2023/07/17 03:03:37;;;;;;;;;;;26.00;53.30;;;;;;1536651;76;789;-52
2023/07/17 03:05:39;;;;;;;;;;;26.00;53.40;;;;;;1539391;76;685;-51
2023/07/17 03:07:41;;;;;;;;;;;26.00;53.30;;;;;;1543266;76;714;-51
2023/07/17 03:09:43;;;;;;;;;;;26.00;53.50;;;;;;1521683;76;1119;-48
2023/07/17 03:11:45;;;;;;;;;;;26.00;53.50;;;;;;1531528;76;726;-51
2023/07/17 03:13:47;;;;;;;;;;;26.00;53.40;;;;;;1542294;76;1526;-47
2023/07/17 03:15:49;;;;;;;;;;;26.00;53.80;;;;;;1544236;76;1940;-50
2023/07/17 03:17:50;;;;;;;;;;;26.00;53.50;;;;;;1537080;76;780;-52
2023/07/17 03:19:52;;;;;;;;;;;26.00;53.50;;;;;;1530745;76;1131;-52
2023/07/17 03:21:54;;;;;;;;;;;26.00;53.50;;;;;;1547492;76;752;-51
2023/07/17 03:23:56;;;;;;;;;;;26.00;53.40;;;;;;1534350;76;948;-48
2023/07/17 03:25:58;;;;;;;;;;;26.00;53.60;;;;;;1541934;75;1095;-51
2023/07/17 03:28:01;;;;;;;;;;;26.00;54.00;;;;;;1550597;75;1418;-48
2023/07/17 03:30:02;;;;;;;;;;;26.00;53.90;;;;;;1550655;75;1171;-49
2023/07/17 03:32:06;;;;;;;;;;;26.00;53.60;;;;;;1557665;75;728;-49
2023/07/17 03:34:08;;;;;;;;;;;26.00;53.90;;;;;;1552192;75;726;-51
2023/07/17 03:36:10;;;;;;;;;;;25.90;53.10;;;;;;1558216;75;1946;-51
2023/07/17 03:38:12;;;;;;;;;;;25.90;53.50;;;;;;1553885;75;724;-48
2023/07/17 03:40:14;;;;;;;;;;;25.90;53.90;;;;;;1546599;75;1226;-51
2023/07/17 03:42:16;;;;;;;;;;;25.90;54.00;;;;;;1562657;75;1589;-51
2023/07/17 03:44:17;;;;;;;;;;;25.90;53.90;;;;;;1557904;75;742;-52
2023/07/17 03:46:19;;;;;;;;;;;25.90;53.70;;;;;;1553064;75;726;-50
2023/07/17 03:48:21;;;;;;;;;;;25.90;53.50;;;;;;1564960;75;811;-52
2023/07/17 03:50:23;;;;;;;;;;;25.90;53.50;;;;;;1559326;75;1138;-50
2023/07/17 03:52:25;;;;;;;;;;;25.90;53.40;;;;;;1559399;75;948;-47
2023/07/17 03:54:27;;;;;;;;;;;25.90;53.40;;;;;;1542507;75;743;-51
2023/07/17 03:56:29;;;;;;;;;;;26.00;54.20;;;;;;1552843;75;1939;-48
2023/07/17 03:58:31;;;;;;;;;;;25.90;53.60;;;;;;1566467;73;1142;-51
2023/07/17 04:00:33;;;;;;;;;;;25.90;53.40;;;;;;1550695;75;749;-50
2023/07/17 04:02:35;;;;;;;;;;;25.90;53.90;;;;;;1550528;75;766;-48
2023/07/17 04:04:37;;;;;;;;;;;25.90;53.70;;;;;;1544898;75;665;-52
2023/07/17 04:06:39;;;;;;;;;;;25.90;53.80;;;;;;1565679;75;793;-52
2023/07/17 04:08:40;;;;;;;;;;;25.90;53.90;;;;;;1549829;75;1180;-52
2023/07/17 04:10:42;;;;;;;;;;;25.90;53.90;;;;;;1554520;75;1313;-51
2023/07/17 04:12:44;;;;;;;;;;;25.90;53.80;;;;;;1554654;75;726;-50
2023/07/17 04:14:46;;;;;;;;;;;25.90;54.00;;;;;;1544386;75;695;-51
2023/07/17 04:16:48;;;;;;;;;;;25.90;53.90;;;;;;1556367;75;1933;-57
2023/07/17 04:18:50;;;;;;;;;;;25.90;53.90;;;;;;1558179;75;1147;-53
2023/07/17 04:20:52;;;;;;;;;;;25.90;54.00;;;;;;1544358;75;698;-50
2023/07/17 04:22:53;;;;;;;;;;;25.90;54.20;;;;;;1558105;75;738;-50
2023/07/17 04:24:55;;;;;;;;;;;25.80;54.20;;;;;;1554572;75;1595;-51
2023/07/17 04:26:57;;;;;;;;;;;25.80;54.20;;;;;;1549660;75;1075;-51
2023/07/17 04:28:59;;;;;;;;;;;25.90;54.10;;;;;;1530887;76;1194;-51
2023/07/17 04:31:04;;;;;;;;;;;25.90;54.00;;;;;;1540799;76;740;-49
2023/07/17 04:33:06;;;;;;;;;;;25.90;54.00;;;;;;1536906;76;732;-51
2023/07/17 04:35:08;;;;;;;;;;;25.90;54.20;;;;;;1539958;76;750;-51
2023/07/17 04:37:10;;;;;;;;;;;25.90;54.20;;;;;;1541088;76;1912;-49
2023/07/17 04:39:12;;;;;;;;;;;25.90;54.20;;;;;;1533639;76;1885;-51
2023/07/17 04:41:14;;;;;;;;;;;25.90;54.00;;;;;;1530830;76;768;-50
2023/07/17 04:43:16;;;;;;;;;;;25.90;53.90;;;;;;1535681;76;697;-49
2023/07/17 04:45:19;;;;;;;;;;;25.90;53.90;;;;;;1532393;76;807;-50
2023/07/17 04:47:21;;;;;;;;;;;25.90;54.00;;;;;;1527090;76;792;-51
2023/07/17 04:49:23;;;;;;;;;;;25.90;53.90;;;;;;1540407;76;1171;-51
2023/07/17 04:51:25;;;;;;;;;;;25.80;54.00;;;;;;1530572;76;1239;-51
2023/07/17 04:53:27;;;;;;;;;;;25.80;54.00;;;;;;1523893;76;717;-51
2023/07/17 04:55:29;;;;;;;;;;;25.80;54.10;;;;;;1532747;76;1938;-51
2023/07/17 04:57:31;;;;;;;;;;;25.80;54.00;;;;;;1532370;76;750;-49
2023/07/17 04:59:33;;;;;;;;;;;25.80;54.10;;;;;;1533140;76;1119;-50
2023/07/17 05:01:35;;;;;;;;;;;25.80;54.10;;;;;;1525545;76;726;-52
2023/07/17 05:03:37;;;;;;;;;;;25.80;54.40;;;;;;1540694;76;748;-48
2023/07/17 05:05:39;;;;;;;;;;;25.80;54.30;;;;;;1531997;76;1539;-51
2023/07/17 05:07:41;;;;;;;;;;;25.80;54.30;;;;;;1525779;76;748;-49
2023/07/17 05:09:43;;;;;;;;;;;25.80;54.30;;;;;;1530817;76;1142;-49
2023/07/17 05:11:45;;;;;;;;;;;25.80;54.30;;;;;;1526482;76;675;-49
2023/07/17 05:13:47;;;;;;;;;;;25.80;54.10;;;;;;1537727;76;726;-49
2023/07/17 05:15:49;;;;;;;;;;;25.80;54.10;;;;;;1536462;76;1971;-51
2023/07/17 05:17:51;;;;;;;;;;;25.80;53.90;;;;;;1535944;76;806;-50
2023/07/17 05:19:53;;;;;;;;;;;25.80;53.90;;;;;;1534008;76;1574;-48
2023/07/17 05:21:55;;;;;;;;;;;25.80;53.90;;;;;;1526420;76;954;-49
2023/07/17 05:23:57;;;;;;;;;;;25.80;53.80;;;;;;1529016;76;766;-50
2023/07/17 05:26:00;;;;;;;;;;;25.80;53.70;;;;;;1531010;76;719;-50
2023/07/17 05:28:02;;;;;;;;;;;25.80;53.70;;;;;;1542805;75;1128;-51
2023/07/17 05:30:04;;;;;;;;;;;25.80;53.60;;;;;;1537936;75;1124;-48
2023/07/17 05:32:06;;;;;;;;;;;25.80;53.60;;;;;;1554087;75;674;-48
2023/07/17 05:34:08;;;;;;;;;;;25.80;53.60;;;;;;1551140;75;1271;-50
2023/07/17 05:36:10;;;;;;;;;;;25.80;53.60;;;;;;1544650;75;1950;-49
2023/07/17 05:38:12;;;;;;;;;;;25.80;53.70;;;;;;1539819;75;736;-51
2023/07/17 05:40:14;;;;;;;;;;;25.90;53.60;;;;;;1548838;75;1113;-47
2023/07/17 05:42:16;;;;;;;;;;;25.90;53.50;;;;;;1539335;75;760;-51
2023/07/17 05:44:17;;;;;;;;;;;25.90;53.50;;;;;;1542771;75;729;-51
2023/07/17 05:46:20;;;;;;;;;;;25.90;53.40;;;;;;1537286;75;725;-51
2023/07/17 05:48:22;;;;;;;;;;;25.70;53.30;;;;;;1547597;75;1502;-51
2023/07/17 05:50:24;;;;;;;;;;;25.70;53.50;;;;;;1550892;75;1128;-51
2023/07/17 05:52:26;;;;;;;;;;;25.60;53.70;;;;;;1545813;75;557;-51
2023/07/17 05:54:27;;;;;;;;;;;25.50;53.70;;;;;;1539435;75;794;-50
2023/07/17 05:56:29;;;;;;;;;;;25.60;53.70;;;;;;1548815;75;1943;-51
2023/07/17 05:58:31;;;;;;;;;;;25.60;53.70;;;;;;1551123;75;1137;-51
2023/07/17 06:00:33;;;;;;;;;;;25.70;53.60;;;;;;1543408;75;733;-49
2023/07/17 06:02:35;;;;;;;;;;;25.70;53.50;;;;;;1536726;75;1508;-51
2023/07/17 06:04:37;;;;;;;;;;;25.70;53.50;;;;;;1549530;75;698;-51
2023/07/17 06:06:39;;;;;;;;;;;25.70;53.30;;;;;;1550267;75;710;-52
2023/07/17 06:08:41;;;;;;;;;;;25.70;53.20;;;;;;1547392;75;1141;-49
2023/07/17 06:10:43;;;;;;;;;;;25.70;53.10;;;;;;1550018;75;804;-49
2023/07/17 06:12:45;;;;;;;;;;;25.70;52.80;;;;;;1555492;75;792;-49
2023/07/17 06:14:47;;;;;;;;;;;25.70;52.80;;;;;;1549726;75;691;-52
2023/07/17 06:16:49;;;;;;;;;;;25.70;52.60;;;;;;1550880;75;1942;-52
2023/07/17 06:18:50;;;;;;;;;;;25.70;52.50;;;;;;1554100;75;1101;-50
2023/07/17 06:20:52;;;;;;;;;;;25.70;52.50;;;;;;1548866;75;781;-51
2023/07/17 06:22:54;;;;;;;;;;;25.70;52.50;;;;;;1554305;75;944;-51
2023/07/17 06:24:56;;;;;;;;;;;25.70;52.50;;;;;;1542048;75;810;-48
2023/07/17 06:26:59;;;;;;;;;;;25.70;52.40;;;;;;1550922;75;783;-47
2023/07/17 06:29:01;;;;;;;;;;;25.70;52.30;;;;;;1548471;75;1185;-51
2023/07/17 06:31:03;;;;;;;;;;;25.70;52.30;;;;;;1552182;75;1543;-50
2023/07/17 06:33:05;;;;;;;;;;;25.70;52.20;;;;;;1557045;75;734;-51
2023/07/17 06:35:07;;;;;;;;;;;25.70;51.90;;;;;;1548595;75;761;-49
2023/07/17 06:37:09;;;;;;;;;;;25.70;51.60;;;;;;1544599;75;1936;-50
2023/07/17 06:39:11;;;;;;;;;;;25.70;51.60;;;;;;1547476;75;1250;-48
2023/07/17 06:41:13;;;;;;;;;;;25.70;51.50;;;;;;1549830;75;731;-49
2023/07/17 06:43:15;;;;;;;;;;;25.70;51.60;;;;;;1547552;75;684;-51
2023/07/17 06:45:17;;;;;;;;;;;25.70;51.50;;;;;;1546411;75;1482;-51
2023/07/17 06:47:19;;;;;;;;;;;25.70;51.60;;;;;;1550050;75;749;-51
2023/07/17 06:49:20;;;;;;;;;;;25.70;51.60;;;;;;1551678;75;1176;-50
2023/07/17 06:51:22;;;;;;;;;;;25.70;51.40;;;;;;1543440;75;755;-50
2023/07/17 06:53:24;;;;;;;;;;;25.70;51.20;;;;;;1543250;75;715;-49
2023/07/17 06:55:26;;;;;;;;;;;25.70;51.30;;;;;;1549748;75;794;-52
2023/07/17 06:57:28;;;;;;;;;;;25.70;51.20;;;;;;1547359;75;1935;-52
2023/07/17 06:59:30;;;;;;;;;;;25.70;51.30;;;;;;1549024;75;1332;-52
2023/07/17 07:01:32;;;;;;;;;;;25.70;51.20;;;;;;1553410;75;778;-48
2023/07/17 07:03:34;;;;;;;;;;;25.70;51.10;;;;;;1539849;75;756;-53
2023/07/17 07:05:36;;;;;;;;;;;25.70;51.00;;;;;;1552080;75;720;-54
2023/07/17 07:07:38;;;;;;;;;;;25.70;50.90;;;;;;1543878;75;810;-53
2023/07/17 07:09:40;;;;;;;;;;;25.70;51.00;;;;;;1551012;75;1124;-52
2023/07/17 07:11:42;;;;;;;;;;;25.70;51.00;;;;;;1549557;75;816;-50
2023/07/17 07:13:44;;;;;;;;;;;25.80;51.20;;;;;;1549639;75;1505;-53
2023/07/17 07:15:47;;;;;;;;;;;25.80;51.30;;;;;;1551393;75;773;-51
2023/07/17 07:17:48;;;;;;;;;;;25.80;51.30;;;;;;1543080;75;1919;-52
2023/07/17 07:19:51;;;;;;;;;;;25.70;51.20;;;;;;1549846;75;1147;-54
2023/07/17 07:21:53;;;;;;;;;;;25.80;51.10;;;;;;1544568;75;722;-51
2023/07/17 07:23:55;;;;;;;;;;;25.80;51.00;;;;;;1548086;75;725;-51
2023/07/17 07:25:57;;;;;;;;;;;25.80;51.00;;;;;;1534536;75;752;-48
2023/07/17 07:28:02;;;;;;;;;;;25.90;51.00;;;;;;1546059;74;1146;-51
2023/07/17 07:30:04;;;;;;;;;;;25.90;51.00;;;;;;1548729;75;1207;-51
2023/07/17 07:32:06;;;;;;;;;;;25.90;51.00;;;;;;1551991;75;780;-50
2023/07/17 07:34:08;;;;;;;;;;;25.90;51.00;;;;;;1546290;75;871;-49
2023/07/17 07:36:10;;;;;;;;;;;25.90;51.00;;;;;;1555104;75;754;-50
2023/07/17 07:38:12;;;;;;;;;;;25.90;50.90;;;;;;1558168;75;1946;-49
2023/07/17 07:40:14;;;;;;;;;;;25.90;50.80;;;;;;1549815;75;1540;-47
2023/07/17 07:42:17;;;;;;;;;;;25.90;50.70;;;;;;1555336;75;822;-48
2023/07/17 07:44:19;;;;;;;;;;;25.90;50.70;;;;;;1545520;75;774;-49
2023/07/17 07:46:21;;;;;;;;;;;25.90;50.70;;;;;;1554457;75;742;-48
2023/07/17 07:48:23;;;;;;;;;;;25.90;50.70;;;;;;1553008;75;780;-49
2023/07/17 07:50:24;;;;;;;;;;;25.90;50.60;;;;;;1548557;75;1166;-49
2023/07/17 07:52:26;;;;;;;;;;;25.90;50.60;;;;;;1554176;75;785;-48
2023/07/17 07:54:28;;;;;;;;;;;25.90;50.10;;;;;;1553769;75;1581;-49
2023/07/17 07:56:30;;;;;;;;;;;25.90;50.20;;;;;;1549468;75;1941;-50
2023/07/17 07:58:32;;;;;;;;;;;25.90;49.80;;;;;;1553819;75;1148;-49
2023/07/17 08:00:34;;;;;;;;;;;25.90;49.00;;;;;;1549729;75;771;-50
2023/07/17 08:02:36;;;;;;;;;;;25.90;48.80;;;;;;1556871;75;851;-50
2023/07/17 08:04:38;;;;;;;;;;;25.90;49.00;;;;;;1552297;75;758;-48
2023/07/17 08:06:40;;;;;;;;;;;25.90;49.10;;;;;;1558554;75;688;-47
2023/07/17 08:08:42;;;;;;;;;;;25.90;48.80;;;;;;1549428;75;1288;-49
2023/07/17 08:10:44;;;;;;;;;;;25.90;48.70;;;;;;1549132;75;737;-49
2023/07/17 08:12:45;;;;;;;;;;;25.80;48.70;;;;;;1555041;75;666;-50
2023/07/17 08:14:47;;;;;;;;;;;26.00;49.30;;;;;;1559523;75;724;-49
2023/07/17 08:16:49;;;;;;;;;;;25.90;48.40;;;;;;1545586;75;1941;-50
2023/07/17 08:18:51;;;;;;;;;;;25.90;48.10;;;;;;1557224;75;1137;-47
2023/07/17 08:20:53;;;;;;;;;;;25.90;47.50;;;;;;1547293;75;766;-47
2023/07/17 08:22:55;;;;;;;;;;;25.90;47.00;;;;;;1552008;75;1526;-50
2023/07/17 08:24:57;;;;;;;;;;;25.90;46.60;;;;;;1541022;75;761;-50
2023/07/17 08:26:59;;;;;;;;;;;25.80;46.80;;;;;;1551158;75;766;-50
2023/07/17 08:29:02;;;;;;;;;;;25.90;46.50;;;;;;1548339;75;1128;-50
2023/07/17 08:31:04;;;;;;;;;;;25.90;45.60;;;;;;1560569;75;742;-48
2023/07/17 08:33:06;;;;;;;;;;;25.80;45.70;;;;;;1557776;75;826;-49
2023/07/17 08:35:08;;;;;;;;;;;25.90;46.30;;;;;;1550167;75;751;-50
2023/07/17 08:37:10;;;;;;;;;;;25.90;46.70;;;;;;1555439;75;1954;-49
2023/07/17 08:39:12;;;;;;;;;;;25.90;46.70;;;;;;1543320;75;1182;-48
2023/07/17 08:41:14;;;;;;;;;;;25.90;46.40;;;;;;1551885;75;733;-49
2023/07/17 08:43:15;;;;;;;;;;;25.90;46.20;;;;;;1556119;75;800;-50
2023/07/17 08:45:17;;;;;;;;;;;25.90;45.70;;;;;;1551183;75;650;-50
2023/07/17 08:47:19;;;;;;;;;;;25.90;45.40;;;;;;1539236;75;719;-50
2023/07/17 08:49:21;;;;;;;;;;;25.80;45.20;;;;;;1560415;75;1176;-48
2023/07/17 08:51:23;;;;;;;;;;;25.80;45.20;;;;;;1556226;75;1546;-49
2023/07/17 08:53:25;;;;;;;;;;;25.80;45.50;;;;;;1547289;75;743;-49
2023/07/17 08:55:32;;;;;;;;;;;25.90;45.40;;;;;;1555770;75;721;-48
2023/07/17 08:57:33;;;;;;;;;;;25.90;45.60;;;;;;1544123;75;1922;-50
2023/07/17 08:59:35;;;;;;;;;;;25.80;45.70;;;;;;1541487;75;1154;-51
2023/07/17 09:01:37;;;;;;;;;;;25.90;45.70;;;;;;1539794;75;738;-50
2023/07/17 09:03:39;;;;;;;;;;;25.80;45.90;;;;;;1552444;75;807;-51
2023/07/17 09:05:42;;;;;;;;;;;25.80;46.00;;;;;;1558053;75;1536;-50
2023/07/17 09:07:45;;;;;;;;;;;25.90;46.00;;;;;;1557121;75;717;-50
2023/07/17 09:09:46;;;;;;;;;;;25.80;46.20;;;;;;1549695;75;1119;-51
2023/07/17 09:11:50;;;;;;;;;;;25.90;46.20;;;;;;1553146;75;691;-51
2023/07/17 09:13:52;;;;;;;;;;;25.90;46.10;;;;;;1556381;75;1498;-50
2023/07/17 09:15:54;;;;;;;;;;;25.90;45.60;;;;;;1556446;75;740;-50
2023/07/17 09:17:56;;;;;;;;;;;25.80;45.60;;;;;;1545271;75;1951;-49
2023/07/17 09:20:00;;;;;;;;;;;25.80;45.40;;;;;;1549022;75;1609;-50
2023/07/17 09:22:05;;;;;;;;;;;25.80;45.30;;;;;;1557179;75;1906;-51
2023/07/17 09:24:07;;;;;;;;;;;25.80;45.20;;;;;;1553829;75;796;-50
2023/07/17 09:26:09;;;;;;;;;;;25.80;45.10;;;;;;1561949;75;811;-51
2023/07/17 09:28:11;;;;;;;;;;;25.70;45.20;;;;;;1557776;75;780;-50
2023/07/17 09:30:13;;;;;;;;;;;25.70;45.40;;;;;;1563091;75;1127;-50
2023/07/17 09:32:18;;;;;;;;;;;25.70;45.50;;;;;;1560184;75;658;-51
2023/07/17 09:34:19;;;;;;;;;;;25.90;45.50;;;;;;1559157;75;1690;-51
2023/07/17 09:36:22;;;;;;;;;;;25.80;45.20;;;;;;1563110;74;769;-51
2023/07/17 09:38:26;;;;;;;;;;;25.80;45.50;;;;;;1556925;75;1936;-51
2023/07/17 09:40:28;;;;;;;;;;;25.80;45.60;;;;;;1556989;75;749;-50
2023/07/17 09:42:30;;;;;;;;;;;25.80;45.80;;;;;;1548841;75;751;-51
2023/07/17 09:44:32;;;;;;;;;;;25.80;45.90;;;;;;1557090;75;754;-51
2023/07/17 09:46:35;;;;;;;;;;;25.80;46.10;;;;;;1559346;75;730;-49
2023/07/17 09:48:36;;;;;;;;;;;25.80;46.00;;;;;;1558158;74;1094;-50
2023/07/17 09:50:38;;;;;;;;;;;25.80;45.70;;;;;;1554033;75;750;-50
2023/07/17 09:52:40;;;;;;;;;;;25.80;45.60;;;;;;1548119;75;793;-49
2023/07/17 09:54:44;;;;;;;;;;;25.80;45.70;;;;;;1557020;75;713;-50
2023/07/17 09:56:46;;;;;;;;;;;25.80;45.70;;;;;;1555495;75;1144;-51
2023/07/17 09:58:48;;;;;;;;;;;25.80;46.00;;;;;;1550446;75;1937;-50
2023/07/17 10:00:52;;;;;;;;;;;25.80;46.00;;;;;;1564121;75;1289;-50
2023/07/17 10:03:08;;;;;;;;;;;25.80;45.80;;;;;;1556977;75;834;-51
2023/07/17 10:05:10;;;;;;;;;;;25.90;45.80;;;;;;1544154;75;687;-50
2023/07/17 10:07:12;;;;;;;;;;;25.80;46.00;;;;;;1556308;74;803;-51
2023/07/17 10:09:14;;;;;;;;;;;25.90;46.10;;;;;;1546259;74;1144;-51
2023/07/17 10:11:18;;;;;;;;;;;25.90;46.30;;;;;;1548319;75;622;-51
2023/07/17 10:13:20;;;;;;;;;;;25.90;46.40;;;;;;1566150;75;1205;-50
2023/07/17 10:15:22;;;;;;;;;;;25.90;46.50;;;;;;1560912;75;1518;-51
2023/07/17 10:17:30;;;;;;;;;;;25.90;46.40;;;;;;1552511;75;1932;-50
2023/07/17 10:19:44;;;;;;;;;;;25.90;46.40;;;;;;1548336;75;1108;-51
2023/07/17 10:21:56;;;;;;;;;;;25.80;46.10;;;;;;1562176;75;748;-50
2023/07/17 10:23:59;;;;;;;;;;;25.90;45.80;;;;;;1555003;75;746;-56
2023/07/17 10:26:10;;;;;;;;;;;25.80;46.00;;;;;;1562054;75;1068;-51
2023/07/17 10:28:12;;;;;;;;;;;25.80;45.90;;;;;;1554806;75;888;-51
2023/07/17 10:30:33;;;;;;;;;;;25.80;46.10;;;;;;1542939;75;1570;-51
2023/07/17 10:32:37;;;;;;;;;;;25.90;46.10;;;;;;1551388;75;786;-49
2023/07/17 10:34:48;;;;;;;;;;;25.90;46.30;;;;;;1565366;75;2065;-50
2023/07/17 10:36:50;;;;;;;;;;;25.90;46.20;;;;;;1553435;75;1045;-50
2023/07/17 10:38:53;;;;;;;;;;;25.90;46.30;;;;;;1546967;75;1932;-50
2023/07/17 10:41:02;;;;;;;;;;;25.90;46.40;;;;;;1544154;75;725;-51
2023/07/17 10:43:12;;;;;;;;;;;25.90;46.70;;;;;;1547226;75;1540;-50
2023/07/17 10:45:14;;;;;;;;;;;25.90;46.20;;;;;;1537391;75;910;-51
2023/07/17 10:47:16;;;;;;;;;;;25.90;45.90;;;;;;1544697;75;756;-47
2023/07/17 10:49:18;;;;;;;;;;;25.90;45.70;;;;;;1546063;75;1188;-51
2023/07/17 10:51:20;;;;;;;;;;;25.90;45.90;;;;;;1542925;75;781;-50
2023/07/17 10:53:23;;;;;;;;;;;25.90;45.90;;;;;;1555706;75;765;-50
2023/07/17 10:55:25;;;;;;;;;;;25.90;46.00;;;;;;1548881;75;745;-51
2023/07/17 10:57:27;;;;;;;;;;;25.90;45.90;;;;;;1551930;75;1531;-51
2023/07/17 10:59:28;;;;;;;;;;;25.90;46.00;;;;;;1547003;75;1940;-50
2023/07/17 11:01:33;;;;;;;;;;;25.80;45.80;;;;;;1522044;76;1258;-50
2023/07/17 11:03:37;;;;;;;;;;;25.90;45.80;;;;;;1550680;75;787;-50
2023/07/17 11:05:39;;;;;;;;;;;25.90;45.90;;;;;;1548635;75;723;-51
2023/07/17 11:07:41;;;;;;;;;;;25.90;46.00;;;;;;1545235;75;758;-50
2023/07/17 11:09:45;;;;;;;;;;;25.90;46.00;;;;;;1537397;75;1105;-50
2023/07/17 11:11:47;;;;;;;;;;;25.90;46.10;;;;;;1546730;75;1528;-49
2023/07/17 11:13:49;;;;;;;;;;;25.90;46.00;;;;;;1540729;75;722;-50
2023/07/17 11:15:51;;;;;;;;;;;25.90;46.00;;;;;;1537098;75;657;-50
2023/07/17 11:17:53;;;;;;;;;;;25.90;46.00;;;;;;1538056;75;1935;-49
2023/07/17 11:20:03;;;;;;;;;;;25.90;46.00;;;;;;1541012;75;1128;-49
2023/07/17 11:22:06;;;;;;;;;;;25.90;46.00;;;;;;1543027;75;755;-50
2023/07/17 11:24:07;;;;;;;;;;;25.90;46.20;;;;;;1544008;75;766;-50
2023/07/17 11:26:09;;;;;;;;;;;25.90;46.30;;;;;;1552363;75;1521;-49
2023/07/17 11:28:11;;;;;;;;;;;25.90;46.20;;;;;;1548627;75;709;-50
2023/07/17 11:30:17;;;;;;;;;;;25.90;46.10;;;;;;1543525;75;1124;-50
2023/07/17 11:32:19;;;;;;;;;;;25.90;46.50;;;;;;1569697;74;601;-50
2023/07/17 11:34:21;;;;;;;;;;;25.90;46.30;;;;;;1571114;75;778;-50
2023/07/17 11:36:23;;;;;;;;;;;26.00;46.80;;;;;;1529096;76;1244;-50
2023/07/17 11:38:25;;;;;;;;;;;25.90;46.20;;;;;;1563504;75;1938;-49
2023/07/17 11:40:27;;;;;;;;;;;25.90;46.40;;;;;;1560041;74;1511;-50
2023/07/17 11:42:29;;;;;;;;;;;25.90;46.10;;;;;;1568206;74;1164;-50
2023/07/17 11:44:32;;;;;;;;;;;25.90;46.30;;;;;;1569964;74;663;-50
2023/07/17 11:46:34;;;;;;;;;;;25.90;46.50;;;;;;1569248;74;772;-50
2023/07/17 11:48:37;;;;;;;;;;;25.90;46.50;;;;;;1566146;74;1191;-50
2023/07/17 11:50:39;;;;;;;;;;;25.90;46.30;;;;;;1571018;73;751;-49
2023/07/17 11:52:41;;;;;;;;;;;26.00;47.00;;;;;;1547717;76;973;-50
2023/07/17 11:54:45;;;;;;;;;;;25.90;46.60;;;;;;1561395;74;1550;-49
2023/07/17 11:56:47;;;;;;;;;;;25.90;46.50;;;;;;1560302;74;770;-50
2023/07/17 11:58:52;;;;;;;;;;;25.90;46.50;;;;;;1557908;74;1949;-50
2023/07/17 12:00:54;;;;;;;;;;;25.90;46.60;;;;;;1567740;75;749;-50
2023/07/17 12:02:56;;;;;;;;;;;25.90;46.60;;;;;;1566762;74;718;-50
2023/07/17 12:05:01;;;;;;;;;;;25.90;46.60;;;;;;1566211;74;743;-50
2023/07/17 12:07:04;;;;;;;;;;;25.90;46.60;;;;;;1566744;75;737;-50
2023/07/17 12:09:06;;;;;;;;;;;25.90;46.80;;;;;;1565066;74;1527;-49